Startpagina
METAR-TAF:

METAR-TAF

Vliegvelden :

Wittmund, Duitsland

breedte: 53-33N, lengte: 007-40E, hoogte: 8 m

Actueel weer

Dit bericht is 49 minuten geleden gemaakt, om 10:20 UTC
Wind 6 kt uit het noorden
Temperatuur 17°C
Vochtigheid 72%
Druk 1024 hPa
Zicht 10 km of meer
Weinig wolken op 1700 ft

METAR: ETNT 261020Z 35006KT 9999 FEW017 17/12 Q1024 BLU+

Tijdstip: 13:09 (11:09 UTC)

Verwachting

Dit bericht is 1 uur en het 9 minuten geleden gemaakt, om 10:00 UTC
Verwachting geldig van 26 om 11 UTC tot 26 om 20 UTC
Wind 10 kt uit het noorden
Zicht 10 km of meer
Verspreide wolken op 1500 ft

TAF: ETNT 261000Z 2611/2620 01010KT 9999 NSW SCT015 BY ETGL

Waarnemingen en weersverwachtingen van meer dan 4000 vliegvelden (METAR en TAF).

De beschikbare stations zijn de gele en rode punten op de kaart.

Ga met uw muis naar het station om de naam te zien.

Klik dan om waarnemingen en weersverwachtingen te zien.

kaart wijzigen: klik op de groene knoppen met een zwart kruis om in te zoomen, op de groene knop met een streepje om uit te zoomen of op de groene pijlen voor aangrenzende kaarten.


METAR-TAF: